Time;durP1;ratioP1;P1;durP2;ratioP2;P2;SDS_P1;SDS_P2;PMS_P1;PMS_P2;Temp;Humidity;BMP_temperature;BMP_pressure;BME280_temperature;BME280_humidity;BME280_pressure;Samples;Min_cycle;Max_cycle;Signal;HPM_P1;HPM_P2
2020/12/24 00:02:59;;;;;;;1.00;0.60;;;;;;;;;;4893207;29;20048;-79
2020/12/24 00:13:10;;;;;;;2.03;0.63;;;;;;;;;;5086460;23;20154;-79
2020/12/24 00:21:27;;;;;;;;;;;;;;;;;;;;;
2020/12/24 00:35:42;;;;;;;2.05;0.70;;;;;;;;;;4940288;28;20034;-79
2020/12/24 00:39:24;;;;;;;2.25;0.80;;;;;;;;;;4884999;29;20091;-79
2020/12/24 00:42:23;;;;;;;1.10;0.50;;;;;;;;;;4984115;23;20058;-80
2020/12/24 00:44:49;;;;;;;1.70;0.55;;;;;;;;;;4975660;28;20254;-79
2020/12/24 00:47:15;;;;;;;1.63;0.50;;;;;;;;;;4991741;28;20038;-78
2020/12/24 00:49:42;;;;;;;1.05;0.52;;;;;;;;;;5005297;28;20050;-79
2020/12/24 00:52:08;;;;;;;1.42;0.60;;;;;;;;;;4987831;28;20046;-80
2020/12/24 00:54:35;;;;;;;1.35;0.60;;;;;;;;;;4988042;28;20070;-79
2020/12/24 00:57:01;;;;;;;2.83;0.70;;;;;;;;;;4987471;28;20043;-79
2020/12/24 00:59:27;;;;;;;1.10;0.60;;;;;;;;;;4981244;28;20070;-80
2020/12/24 01:01:53;;;;;;;1.15;0.70;;;;;;;;;;4979956;28;20047;-80
2020/12/24 01:04:19;;;;;;;4.03;0.70;;;;;;;;;;4981228;28;20077;-78
2020/12/24 01:06:45;;;;;;;1.13;0.55;;;;;;;;;;4981314;28;20054;-79
2020/12/24 01:09:12;;;;;;;1.52;0.50;;;;;;;;;;4981237;28;20569;-78
2020/12/24 01:11:38;;;;;;;1.95;0.70;;;;;;;;;;4978615;28;20057;-79
2020/12/24 01:14:04;;;;;;;0.80;0.60;;;;;;;;;;4981854;28;20054;-79
2020/12/24 01:16:31;;;;;;;2.75;0.63;;;;;;;;;;4974571;28;20126;-80
2020/12/24 01:18:58;;;;;;;1.42;0.63;;;;;;;;;;4982810;28;20050;-79
2020/12/24 01:21:24;;;;;;;1.13;0.70;;;;;;;;;;4982530;28;20051;-79
2020/12/24 01:23:50;;;;;;;1.25;0.60;;;;;;;;;;4982868;28;20061;-80
2020/12/24 01:26:17;;;;;;;5.53;1.25;;;;;;;;;;4983474;28;20071;-79
2020/12/24 01:28:43;;;;;;;2.53;0.70;;;;;;;;;;4982363;28;20050;-79
2020/12/24 01:31:09;;;;;;;1.38;0.70;;;;;;;;;;4981831;28;20043;-79
2020/12/24 01:33:36;;;;;;;2.00;0.80;;;;;;;;;;4981733;28;20584;-79
2020/12/24 01:36:03;;;;;;;1.27;0.55;;;;;;;;;;4981734;28;20117;-79
2020/12/24 01:38:29;;;;;;;1.00;0.60;;;;;;;;;;4964290;28;20047;-79
2020/12/24 01:40:55;;;;;;;1.88;0.60;;;;;;;;;;4982032;28;20106;-80
2020/12/24 01:43:22;;;;;;;1.75;0.60;;;;;;;;;;4980955;28;20046;-79
2020/12/24 01:45:52;;;;;;;1.40;0.70;;;;;;;;;;4983439;28;20106;-79
2020/12/24 01:48:19;;;;;;;6.47;0.82;;;;;;;;;;4983472;28;20043;-78
2020/12/24 01:50:45;;;;;;;1.10;0.73;;;;;;;;;;4980723;28;20046;-78
2020/12/24 01:53:18;;;;;;;1.65;0.73;;;;;;;;;;4981864;28;20039;-79
2020/12/24 01:55:45;;;;;;;1.02;0.77;;;;;;;;;;4983122;28;20077;-78
2020/12/24 01:58:11;;;;;;;4.95;0.70;;;;;;;;;;4983438;28;20046;-79
2020/12/24 02:00:38;;;;;;;3.97;0.98;;;;;;;;;;4981839;28;20051;-80
2020/12/24 02:03:04;;;;;;;1.58;0.70;;;;;;;;;;4981582;28;20050;-79
2020/12/24 02:05:31;;;;;;;3.03;1.00;;;;;;;;;;4979126;28;20043;-78
2020/12/24 02:07:57;;;;;;;2.58;0.75;;;;;;;;;;4962715;28;20110;-80
2020/12/24 02:10:24;;;;;;;3.50;0.80;;;;;;;;;;4981856;28;20049;-80
2020/12/24 02:12:50;;;;;;;1.60;0.75;;;;;;;;;;4981597;28;20057;-80
2020/12/24 02:15:17;;;;;;;1.35;0.80;;;;;;;;;;4982478;28;20454;-79
2020/12/24 02:17:44;;;;;;;3.88;1.15;;;;;;;;;;4979768;28;20047;-79
2020/12/24 02:20:10;;;;;;;3.00;0.85;;;;;;;;;;4979009;28;20046;-80
2020/12/24 02:22:36;;;;;;;0.93;0.73;;;;;;;;;;4979709;28;20522;-79
2020/12/24 02:25:02;;;;;;;3.78;0.90;;;;;;;;;;4980364;28;20105;-80
2020/12/24 02:27:29;;;;;;;1.30;0.80;;;;;;;;;;4963234;28;20606;-80
2020/12/24 02:29:55;;;;;;;3.35;0.75;;;;;;;;;;4960053;29;20400;-79
2020/12/24 02:32:21;;;;;;;2.83;0.90;;;;;;;;;;4963089;29;20066;-78
2020/12/24 02:34:47;;;;;;;2.40;0.80;;;;;;;;;;4966640;29;20446;-78
2020/12/24 02:37:13;;;;;;;4.20;0.77;;;;;;;;;;4965961;29;20067;-78
2020/12/24 02:39:40;;;;;;;1.92;0.95;;;;;;;;;;4966001;29;20070;-78
2020/12/24 02:42:06;;;;;;;2.15;0.90;;;;;;;;;;4948029;29;20062;-78
2020/12/24 02:44:33;;;;;;;1.45;0.65;;;;;;;;;;4965613;29;20509;-78
2020/12/24 02:47:00;;;;;;;2.88;0.82;;;;;;;;;;4966662;29;20070;-77
2020/12/24 02:49:26;;;;;;;1.33;0.73;;;;;;;;;;4967570;29;20131;-80
2020/12/24 02:51:52;;;;;;;6.00;1.27;;;;;;;;;;4945580;29;20047;-79
2020/12/24 02:54:18;;;;;;;3.08;0.70;;;;;;;;;;4962945;29;20050;-79
2020/12/24 02:56:53;;;;;;;4.03;1.03;;;;;;;;;;4963072;29;20046;-80
2020/12/24 02:59:20;;;;;;;2.30;0.73;;;;;;;;;;4943487;29;20039;-79
2020/12/24 03:01:46;;;;;;;2.50;0.90;;;;;;;;;;4960520;29;20054;-80
2020/12/24 03:04:13;;;;;;;2.13;0.77;;;;;;;;;;4959551;29;20466;-79
2020/12/24 03:06:40;;;;;;;2.35;0.82;;;;;;;;;;4960346;29;20503;-79
2020/12/24 03:09:06;;;;;;;2.90;0.80;;;;;;;;;;4960135;29;20077;-79
2020/12/24 03:11:33;;;;;;;4.57;1.20;;;;;;;;;;4960756;29;20043;-79
2020/12/24 03:13:59;;;;;;;4.32;1.10;;;;;;;;;;4965086;28;20122;-80
2020/12/24 03:16:25;;;;;;;2.88;0.80;;;;;;;;;;4966321;29;20149;-78
2020/12/24 03:18:51;;;;;;;1.25;1.00;;;;;;;;;;4964910;29;20067;-79
2020/12/24 03:21:17;;;;;;;3.25;0.85;;;;;;;;;;4967293;28;20394;-78
2020/12/24 03:23:44;;;;;;;3.08;0.90;;;;;;;;;;4967337;28;20078;-79
2020/12/24 03:26:10;;;;;;;4.65;1.00;;;;;;;;;;4980209;28;20046;-78
2020/12/24 03:28:36;;;;;;;2.40;0.90;;;;;;;;;;4981235;28;20073;-80
2020/12/24 03:31:02;;;;;;;1.40;0.73;;;;;;;;;;4984644;28;20487;-79
2020/12/24 03:33:28;;;;;;;1.63;0.70;;;;;;;;;;4983920;28;20594;-79
2020/12/24 03:35:55;;;;;;;6.20;1.08;;;;;;;;;;4983201;28;20074;-79
2020/12/24 03:38:21;;;;;;;1.75;0.88;;;;;;;;;;4983216;28;20053;-79
2020/12/24 03:40:47;;;;;;;2.95;1.00;;;;;;;;;;4982495;28;20051;-78
2020/12/24 03:43:13;;;;;;;1.73;0.88;;;;;;;;;;4984394;28;20043;-79
2020/12/24 03:45:39;;;;;;;7.03;1.10;;;;;;;;;;4982212;28;20553;-77
2020/12/24 03:48:06;;;;;;;1.02;0.70;;;;;;;;;;4982228;28;20043;-79
2020/12/24 03:50:36;;;;;;;2.85;0.73;;;;;;;;;;4983306;28;20046;-79
2020/12/24 03:53:02;;;;;;;4.43;1.20;;;;;;;;;;4983695;28;20109;-80
2020/12/24 03:55:29;;;;;;;3.15;0.82;;;;;;;;;;4983355;28;20095;-80
2020/12/24 03:57:55;;;;;;;3.28;0.93;;;;;;;;;;4982679;28;20098;-79
2020/12/24 04:00:21;;;;;;;1.13;0.70;;;;;;;;;;4982840;28;20070;-79
2020/12/24 04:02:47;;;;;;;3.20;0.73;;;;;;;;;;4982299;28;20695;-79
2020/12/24 04:05:13;;;;;;;4.55;0.80;;;;;;;;;;4982116;28;20049;-81
2020/12/24 04:07:39;;;;;;;2.53;0.65;;;;;;;;;;4964845;28;20062;-80
2020/12/24 04:10:05;;;;;;;4.82;0.73;;;;;;;;;;4982944;28;20069;-78
2020/12/24 04:12:31;;;;;;;2.65;1.05;;;;;;;;;;4982930;28;20128;-79
2020/12/24 04:15:00;;;;;;;2.17;0.70;;;;;;;;;;4989033;28;20023;-78
2020/12/24 04:17:27;;;;;;;1.75;0.65;;;;;;;;;;4993272;28;20102;-78
2020/12/24 04:19:53;;;;;;;1.63;0.60;;;;;;;;;;4992533;28;20047;-78
2020/12/24 04:22:19;;;;;;;0.88;0.50;;;;;;;;;;4982508;28;20466;-78
2020/12/24 04:24:45;;;;;;;1.77;0.52;;;;;;;;;;4980641;28;20122;-78
2020/12/24 04:27:13;;;;;;;3.42;0.90;;;;;;;;;;4982328;28;20085;-78
2020/12/24 04:29:39;;;;;;;2.42;0.65;;;;;;;;;;4980446;28;20062;-79
2020/12/24 04:32:05;;;;;;;2.22;0.70;;;;;;;;;;4982271;28;20122;-78
2020/12/24 04:34:32;;;;;;;6.22;0.88;;;;;;;;;;4981097;28;20045;-79
2020/12/24 04:36:59;;;;;;;2.42;0.75;;;;;;;;;;4980827;28;20046;-78
2020/12/24 04:39:25;;;;;;;6.18;1.42;;;;;;;;;;4978628;28;20043;-79
2020/12/24 04:41:52;;;;;;;3.95;0.63;;;;;;;;;;4965602;28;20074;-78
2020/12/24 04:44:18;;;;;;;2.20;0.70;;;;;;;;;;4983062;28;20086;-79
2020/12/24 04:46:45;;;;;;;2.28;0.73;;;;;;;;;;4982818;28;20047;-79
2020/12/24 04:49:10;;;;;;;2.42;0.60;;;;;;;;;;4997814;28;20039;-77
2020/12/24 04:51:37;;;;;;;2.25;0.70;;;;;;;;;;4982553;28;20046;-79
2020/12/24 04:54:04;;;;;;;3.42;0.90;;;;;;;;;;4967811;28;20046;-77
2020/12/24 04:56:30;;;;;;;5.82;0.95;;;;;;;;;;4984682;28;20051;-79
2020/12/24 04:58:58;;;;;;;9.00;0.90;;;;;;;;;;4984009;28;20047;-79
2020/12/24 05:01:24;;;;;;;2.63;0.68;;;;;;;;;;4984155;28;20115;-80
2020/12/24 05:03:53;;;;;;;3.28;1.17;;;;;;;;;;4984212;28;20066;-80
2020/12/24 05:06:20;;;;;;;2.90;0.77;;;;;;;;;;4987919;28;20082;-79
2020/12/24 05:08:51;;;;;;;2.90;0.60;;;;;;;;;;4986354;28;20046;-79
2020/12/24 05:11:23;;;;;;;3.47;0.80;;;;;;;;;;4990847;28;20101;-78
2020/12/24 05:13:49;;;;;;;2.20;0.85;;;;;;;;;;4979689;28;20490;-78
2020/12/24 05:16:16;;;;;;;3.22;0.68;;;;;;;;;;4976648;28;20039;-78
2020/12/24 05:18:42;;;;;;;1.92;0.50;;;;;;;;;;4978096;28;20117;-78
2020/12/24 05:21:09;;;;;;;3.20;0.60;;;;;;;;;;4978588;28;20130;-78
2020/12/24 05:23:35;;;;;;;2.38;0.52;;;;;;;;;;4978649;28;20043;-78
2020/12/24 05:26:16;;;;;;;2.65;0.50;;;;;;;;;;4977597;28;20515;-79
2020/12/24 05:28:42;;;;;;;2.38;0.70;;;;;;;;;;4979275;28;20070;-79
2020/12/24 05:31:09;;;;;;;4.05;0.57;;;;;;;;;;4977896;28;20050;-78
2020/12/24 05:33:35;;;;;;;3.58;0.60;;;;;;;;;;4976478;28;20113;-78
2020/12/24 05:36:20;;;;;;;5.50;0.73;;;;;;;;;;4991096;28;20050;-79
2020/12/24 05:38:49;;;;;;;4.55;0.65;;;;;;;;;;4975567;28;20054;-76
2020/12/24 05:41:35;;;;;;;6.38;0.80;;;;;;;;;;4975566;28;20102;-78
2020/12/24 05:44:11;;;;;;;5.93;0.75;;;;;;;;;;4976525;28;20042;-79
2020/12/24 05:46:39;;;;;;;5.07;0.60;;;;;;;;;;4973434;28;20122;-78
2020/12/24 05:49:15;;;;;;;2.20;0.55;;;;;;;;;;4977545;28;20043;-78
2020/12/24 05:51:58;;;;;;;4.88;0.80;;;;;;;;;;4977557;28;20125;-78
2020/12/24 05:54:25;;;;;;;5.97;0.85;;;;;;;;;;4978816;28;20051;-77
2020/12/24 05:56:52;;;;;;;3.35;0.60;;;;;;;;;;4979076;28;20042;-80
2020/12/24 05:59:19;;;;;;;6.50;0.73;;;;;;;;;;4980005;28;20137;-78
2020/12/24 06:01:59;;;;;;;6.57;0.73;;;;;;;;;;4967955;28;20591;-78
2020/12/24 06:04:44;;;;;;;3.55;0.65;;;;;;;;;;4982335;28;20112;-80
2020/12/24 06:07:14;;;;;;;6.93;0.90;;;;;;;;;;4984617;28;20051;-79
2020/12/24 06:09:41;;;;;;;5.78;0.70;;;;;;;;;;4983159;28;20051;-78
2020/12/24 06:12:14;;;;;;;6.47;0.80;;;;;;;;;;4996900;28;20054;-78
2020/12/24 06:14:46;;;;;;;6.45;1.27;;;;;;;;;;4982874;28;20074;-80
2020/12/24 06:17:14;;;;;;;6.03;0.77;;;;;;;;;;4983391;28;20061;-77
2020/12/24 06:19:40;;;;;;;4.28;0.70;;;;;;;;;;4976527;28;20051;-78
2020/12/24 06:22:13;;;;;;;3.80;0.70;;;;;;;;;;4974688;28;20039;-78
2020/12/24 06:24:46;;;;;;;5.07;0.63;;;;;;;;;;4974870;28;20035;-79
2020/12/24 06:27:20;;;;;;;7.90;0.80;;;;;;;;;;4977397;28;20046;-79
2020/12/24 06:29:48;;;;;;;5.82;0.90;;;;;;;;;;4973945;28;20039;-79
2020/12/24 06:32:17;;;;;;;2.38;0.60;;;;;;;;;;4975029;28;20046;-78
2020/12/24 06:34:43;;;;;;;3.97;0.80;;;;;;;;;;4975944;28;20042;-79
2020/12/24 06:37:18;;;;;;;3.20;0.70;;;;;;;;;;4977042;28;20494;-79
2020/12/24 06:39:52;;;;;;;3.65;0.93;;;;;;;;;;4973834;28;20047;-77
2020/12/24 06:46:44;;;;;;;7.53;1.00;;;;;;;;;;4953082;29;20074;-80
2020/12/24 06:50:10;;;;;;;;;;;;;;;;;;;;;
2020/12/24 06:57:40;;;;;;;;;;;;;;;;;;;;;
2020/12/24 07:05:10;;;;;;;;;;;;;;;;;;;;;
2020/12/24 07:08:49;;;;;;;5.82;0.82;;;;;;;;;;4861133;29;20093;-80
2020/12/24 07:12:12;;;;;;;6.30;1.10;;;;;;;;;;4859694;29;20068;-78
2020/12/24 07:15:30;;;;;;;5.40;1.02;;;;;;;;;;4818176;29;20480;-78
2020/12/24 07:22:59;;;;;;;10.07;1.10;;;;;;;;;;4782176;29;20051;-78
2020/12/24 07:29:53;;;;;;;8.60;1.20;;;;;;;;;;4857082;29;20041;-79
2020/12/24 07:36:42;;;;;;;9.13;1.33;;;;;;;;;;4750827;29;20056;-80
2020/12/24 07:44:18;;;;;;;;;;;;;;;;;;;;;
2020/12/24 07:47:34;;;;;;;7.30;1.52;;;;;;;;;;4807650;29;20058;-81
2020/12/24 07:50:46;;;;;;;12.27;1.48;;;;;;;;;;4913048;29;20044;-85
2020/12/24 07:53:48;;;;;;;6.35;0.98;;;;;;;;;;4918470;29;20072;-87
2020/12/24 07:57:01;;;;;;;10.85;1.60;;;;;;;;;;4876938;29;20053;-79
2020/12/24 08:07:17;;;;;;;8.85;1.13;;;;;;;;;;4798569;29;20090;-77
2020/12/24 08:10:43;;;;;;;8.65;0.90;;;;;;;;;;4811026;29;20092;-78
2020/12/24 08:13:45;;;;;;;7.07;1.20;;;;;;;;;;4814304;29;20236;-79
2020/12/24 08:18:02;;;;;;;11.85;1.35;;;;;;;;;;4866103;29;20049;-79
2020/12/24 08:21:09;;;;;;;13.45;1.38;;;;;;;;;;4856518;29;20041;-79
2020/12/24 08:24:07;;;;;;;;;;;;;;;;;;;;;
2020/12/24 08:30:02;;;;;;;5.45;1.20;;;;;;;;;;4858720;29;20049;-82
2020/12/24 08:36:43;;;;;;;4.95;1.13;;;;;;;;;;4908573;28;20555;-80
2020/12/24 08:43:27;;;;;;;10.73;1.60;;;;;;;;;;4882168;29;20078;-81
2020/12/24 08:46:37;;;;;;;6.47;1.20;;;;;;;;;;4903280;29;20044;-78
2020/12/24 08:49:51;;;;;;;10.75;1.80;;;;;;;;;;4914643;29;20048;-81
2020/12/24 08:52:44;;;;;;;11.00;1.50;;;;;;;;;;4938112;29;20507;-80
2020/12/24 08:56:18;;;;;;;7.78;1.10;;;;;;;;;;4931837;29;20048;-80
2020/12/24 08:59:17;;;;;;;10.43;1.40;;;;;;;;;;4912204;29;20060;-81
2020/12/24 09:02:28;;;;;;;7.93;1.38;;;;;;;;;;4915003;29;20455;-80
2020/12/24 09:05:24;;;;;;;7.50;1.23;;;;;;;;;;4933105;29;20339;-78
2020/12/24 09:08:07;;;;;;;9.20;1.48;;;;;;;;;;4939346;29;20056;-82
2020/12/24 09:10:56;;;;;;;12.43;1.83;;;;;;;;;;4943660;29;20127;-82
2020/12/24 09:17:19;;;;;;;8.02;1.27;;;;;;;;;;4908556;29;20035;-80
2020/12/24 09:20:27;;;;;;;8.93;1.55;;;;;;;;;;4973466;28;20046;-78
2020/12/24 09:27:44;;;;;;;10.18;1.00;;;;;;;;;;4927504;29;20079;-79
2020/12/24 09:31:11;;;;;;;9.82;1.30;;;;;;;;;;4917803;29;20091;-80
2020/12/24 09:34:51;;;;;;;;;;;;;;;;;;;;;
2020/12/24 09:41:40;;;;;;;15.02;1.50;;;;;;;;;;4994451;28;20050;-79
2020/12/24 09:45:16;;;;;;;;;;;;;;;;;;;;;
2020/12/24 09:48:08;;;;;;;6.90;1.33;;;;;;;;;;4884397;29;20052;-77
2020/12/24 09:54:41;;;;;;;9.35;1.10;;;;;;;;;;4876254;29;20063;-78
2020/12/24 09:57:19;;;;;;;10.70;1.92;;;;;;;;;;4877644;29;20053;-80
2020/12/24 10:00:22;;;;;;;9.80;1.33;;;;;;;;;;4879613;29;20045;-79
2020/12/24 10:03:17;;;;;;;;;;;;;;;;;;;;;
2020/12/24 10:06:21;;;;;;;6.28;1.13;;;;;;;;;;4888480;29;20077;-81
2020/12/24 10:09:02;;;;;;;8.98;1.55;;;;;;;;;;4876377;29;20049;-79
2020/12/24 10:12:04;;;;;;;7.28;1.00;;;;;;;;;;4864026;29;20052;-78
2020/12/24 10:15:14;;;;;;;;;;;;;;;;;;;;;
2020/12/24 10:21:36;;;;;;;7.70;0.80;;;;;;;;;;4863420;29;20064;-79
2020/12/24 10:24:44;;;;;;;9.50;1.35;;;;;;;;;;4887702;29;20054;-79
2020/12/24 10:28:22;;;;;;;7.38;1.17;;;;;;;;;;4944679;29;20101;-79
2020/12/24 10:31:57;;;;;;;8.90;1.30;;;;;;;;;;4912814;29;20050;-78
2020/12/24 10:35:10;;;;;;;5.95;1.10;;;;;;;;;;4891628;28;20422;-79
2020/12/24 10:38:10;;;;;;;7.75;1.08;;;;;;;;;;4979325;28;20427;-80
2020/12/24 10:44:43;;;;;;;7.18;0.90;;;;;;;;;;4919598;29;20070;-79
2020/12/24 10:47:38;;;;;;;4.65;1.00;;;;;;;;;;4926232;29;20047;-80
2020/12/24 10:50:59;;;;;;;17.45;1.33;;;;;;;;;;4934885;29;20511;-80
2020/12/24 10:53:42;;;;;;;6.25;1.08;;;;;;;;;;4930944;29;20079;-81
2020/12/24 11:07:01;;;;;;;7.75;0.70;;;;;;;;;;4924215;29;20047;-80
2020/12/24 11:10:22;;;;;;;4.40;0.68;;;;;;;;;;4868285;29;20057;-81
2020/12/24 11:13:28;;;;;;;4.57;0.63;;;;;;;;;;4826171;29;20080;-80
2020/12/24 11:16:32;;;;;;;3.25;0.90;;;;;;;;;;4861647;29;20053;-80
2020/12/24 11:22:27;;;;;;;3.53;0.43;;;;;;;;;;4766441;29;20095;-79
2020/12/24 11:25:25;;;;;;;3.08;0.60;;;;;;;;;;4852870;29;20521;-78
2020/12/24 11:32:01;;;;;;;2.70;0.77;;;;;;;;;;4880584;29;20049;-79
2020/12/24 11:38:52;;;;;;;2.13;0.75;;;;;;;;;;4857528;29;20048;-80
2020/12/24 11:41:47;;;;;;;2.20;0.60;;;;;;;;;;4864407;29;20141;-78
2020/12/24 11:45:14;;;;;;;3.90;0.60;;;;;;;;;;4862285;29;20045;-81
2020/12/24 12:00:13;;;;;;;1.13;0.45;;;;;;;;;;4833243;29;20102;-78
2020/12/24 12:03:13;;;;;;;2.00;0.68;;;;;;;;;;4971003;23;20042;-78
2020/12/24 12:06:24;;;;;;;1.67;0.57;;;;;;;;;;5000977;28;20057;-77
2020/12/24 12:09:27;;;;;;;;;;;;;;;;;;;;;
2020/12/24 12:12:26;;;;;;;;;;;;;;;;;;;;;
2020/12/24 12:15:18;;;;;;;2.23;0.60;;;;;;;;;;5006749;28;20045;-78
2020/12/24 12:18:46;;;;;;;2.90;0.63;;;;;;;;;;4972520;28;20047;-77
2020/12/24 12:25:52;;;;;;;2.67;0.50;;;;;;;;;;4973065;28;20262;-80
2020/12/24 12:28:51;;;;;;;6.05;0.82;;;;;;;;;;4959095;28;20054;-78
2020/12/24 12:31:59;;;;;;;;;;;;;;;;;;;;;
2020/12/24 12:39:05;;;;;;;1.38;0.40;;;;;;;;;;4972903;28;20042;-78
2020/12/24 12:41:48;;;;;;;0.57;0.35;;;;;;;;;;4996071;28;20046;-77
2020/12/24 12:44:34;;;;;;;1.27;0.40;;;;;;;;;;5011088;28;20053;-80
2020/12/24 12:47:00;;;;;;;1.10;0.40;;;;;;;;;;4998364;28;20048;-79
2020/12/24 12:49:27;;;;;;;0.73;0.30;;;;;;;;;;4997237;28;20535;-79
2020/12/24 12:51:56;;;;;;;0.88;0.30;;;;;;;;;;4997391;28;20042;-79
2020/12/24 12:54:25;;;;;;;1.23;0.40;;;;;;;;;;4995332;28;20073;-79
2020/12/24 12:56:54;;;;;;;1.02;0.40;;;;;;;;;;4997690;28;20050;-81
2020/12/24 12:59:23;;;;;;;1.70;0.40;;;;;;;;;;4979682;28;20473;-79
2020/12/24 13:01:53;;;;;;;2.22;0.40;;;;;;;;;;4964733;28;20070;-79
2020/12/24 13:04:19;;;;;;;1.38;0.38;;;;;;;;;;4980094;28;20054;-79
2020/12/24 13:06:46;;;;;;;0.70;0.30;;;;;;;;;;4980025;28;20552;-78
2020/12/24 13:09:17;;;;;;;0.40;0.30;;;;;;;;;;4982170;28;20088;-80
2020/12/24 13:11:47;;;;;;;0.77;0.40;;;;;;;;;;5003658;28;20282;-79
2020/12/24 13:14:51;;;;;;;1.05;0.47;;;;;;;;;;4959779;28;20052;-80
2020/12/24 13:17:18;;;;;;;2.20;0.55;;;;;;;;;;4981952;28;20051;-81
2020/12/24 13:19:45;;;;;;;0.68;0.20;;;;;;;;;;4982626;28;20127;-79
2020/12/24 13:22:14;;;;;;;0.47;0.22;;;;;;;;;;4996978;28;20048;-80
2020/12/24 13:24:43;;;;;;;1.35;0.28;;;;;;;;;;4979270;28;20298;-81
2020/12/24 13:27:09;;;;;;;0.57;0.30;;;;;;;;;;4980134;28;20433;-78
2020/12/24 13:29:38;;;;;;;0.35;0.20;;;;;;;;;;4979461;28;20043;-80
2020/12/24 13:32:04;;;;;;;0.65;0.20;;;;;;;;;;4963349;28;20506;-79
2020/12/24 13:34:33;;;;;;;0.60;0.30;;;;;;;;;;4996758;28;20044;-78
2020/12/24 13:37:00;;;;;;;2.25;0.50;;;;;;;;;;4964009;28;20077;-79
2020/12/24 13:39:27;;;;;;;0.40;0.30;;;;;;;;;;4996903;28;20053;-79
2020/12/24 13:41:54;;;;;;;0.80;0.50;;;;;;;;;;4979639;28;20046;-80
2020/12/24 13:44:21;;;;;;;0.70;0.40;;;;;;;;;;4979146;28;20129;-80
2020/12/24 13:46:51;;;;;;;0.75;0.38;;;;;;;;;;4964848;28;20389;-80
2020/12/24 13:49:25;;;;;;;0.20;0.20;;;;;;;;;;4980010;28;20057;-80
2020/12/24 13:51:53;;;;;;;1.05;0.55;;;;;;;;;;4997037;28;20046;-81
2020/12/24 13:54:20;;;;;;;0.77;0.30;;;;;;;;;;4979544;28;20194;-81
2020/12/24 13:57:09;;;;;;;1.00;0.50;;;;;;;;;;4967758;28;20050;-78
2020/12/24 13:59:37;;;;;;;2.05;0.60;;;;;;;;;;4999068;28;20057;-80
2020/12/24 14:02:10;;;;;;;0.80;0.60;;;;;;;;;;4965393;28;20042;-78
2020/12/24 14:04:41;;;;;;;3.38;0.90;;;;;;;;;;4982695;28;20042;-79
2020/12/24 14:07:13;;;;;;;1.38;0.90;;;;;;;;;;4981548;28;20117;-79
2020/12/24 14:09:42;;;;;;;1.00;0.70;;;;;;;;;;4966934;28;20043;-79
2020/12/24 14:12:09;;;;;;;0.60;0.55;;;;;;;;;;4999754;28;20355;-79
2020/12/24 14:14:39;;;;;;;1.55;0.80;;;;;;;;;;4999819;28;20042;-79
2020/12/24 14:17:09;;;;;;;2.80;1.00;;;;;;;;;;4966529;28;20046;-78
2020/12/24 14:19:36;;;;;;;2.65;1.08;;;;;;;;;;4966792;28;20046;-80
2020/12/24 14:22:05;;;;;;;1.33;0.95;;;;;;;;;;4999705;28;20072;-78
2020/12/24 14:24:51;;;;;;;1.45;0.80;;;;;;;;;;5000323;28;20201;-81
2020/12/24 14:27:27;;;;;;;1.00;0.80;;;;;;;;;;4985370;28;20046;-79
2020/12/24 14:29:54;;;;;;;3.17;1.50;;;;;;;;;;4984983;28;20042;-80
2020/12/24 14:32:26;;;;;;;3.17;1.50;;;;;;;;;;5002314;28;20057;-81
2020/12/24 14:34:59;;;;;;;1.15;0.80;;;;;;;;;;4986067;28;20054;-79
2020/12/24 14:37:35;;;;;;;1.30;0.98;;;;;;;;;;4969927;28;20046;-80
2020/12/24 14:40:09;;;;;;;1.23;0.70;;;;;;;;;;4987831;28;20096;-79
2020/12/24 14:42:44;;;;;;;1.20;0.80;;;;;;;;;;4970343;28;20501;-80
2020/12/24 14:45:18;;;;;;;4.40;1.70;;;;;;;;;;5005662;28;20559;-79
2020/12/24 14:48:02;;;;;;;2.00;1.30;;;;;;;;;;4976173;28;20110;-79
2020/12/24 14:50:38;;;;;;;1.83;1.23;;;;;;;;;;5007112;28;20054;-80
2020/12/24 14:53:23;;;;;;;2.42;1.70;;;;;;;;;;4991317;28;20046;-80
2020/12/24 14:55:52;;;;;;;4.57;1.60;;;;;;;;;;4988590;28;20043;-80
2020/12/24 14:58:21;;;;;;;3.65;2.00;;;;;;;;;;4990764;28;20113;-79
2020/12/24 15:01:00;;;;;;;4.18;2.60;;;;;;;;;;4971910;28;20042;-80
2020/12/24 15:03:46;;;;;;;4.72;2.78;;;;;;;;;;4976687;28;20054;-79
2020/12/24 15:06:21;;;;;;;3.80;2.80;;;;;;;;;;4986560;28;20042;-81
2020/12/24 15:08:53;;;;;;;3.63;2.88;;;;;;;;;;4969607;28;20052;-80
2020/12/24 15:11:26;;;;;;;7.50;3.35;;;;;;;;;;4970566;28;20027;-78
2020/12/24 15:13:56;;;;;;;3.92;3.13;;;;;;;;;;4953380;28;20145;-80
2020/12/24 15:16:32;;;;;;;4.65;3.25;;;;;;;;;;4970203;28;20549;-80
2020/12/24 15:19:02;;;;;;;4.03;3.22;;;;;;;;;;4968182;28;20053;-79
2020/12/24 15:21:31;;;;;;;3.40;2.90;;;;;;;;;;4966063;28;20100;-82
2020/12/24 15:24:02;;;;;;;4.82;3.35;;;;;;;;;;4950330;28;20054;-82
2020/12/24 15:26:32;;;;;;;4.88;3.80;;;;;;;;;;4965052;28;20077;-81
2020/12/24 15:29:03;;;;;;;4.90;3.75;;;;;;;;;;4998493;28;20078;-80
2020/12/24 15:31:32;;;;;;;5.10;3.88;;;;;;;;;;4981160;28;20061;-80
2020/12/24 15:34:07;;;;;;;5.38;4.10;;;;;;;;;;4981442;28;20045;-80
2020/12/24 15:36:39;;;;;;;6.90;4.55;;;;;;;;;;4967997;28;20050;-81
2020/12/24 15:39:14;;;;;;;6.25;4.45;;;;;;;;;;4981942;28;20060;-80
2020/12/24 15:41:52;;;;;;;5.18;4.07;;;;;;;;;;4981800;28;20552;-79
2020/12/24 15:44:19;;;;;;;7.03;4.78;;;;;;;;;;4980968;28;20055;-82
2020/12/24 15:46:52;;;;;;;5.80;4.07;;;;;;;;;;4982181;28;20156;-79
2020/12/24 15:49:23;;;;;;;6.72;5.00;;;;;;;;;;4982869;28;20050;-82
2020/12/24 15:51:58;;;;;;;6.13;4.25;;;;;;;;;;4982345;28;20043;-81
2020/12/24 15:54:30;;;;;;;6.65;5.00;;;;;;;;;;4965602;28;20042;-78
2020/12/24 15:57:02;;;;;;;7.68;5.00;;;;;;;;;;4999226;28;20042;-78
2020/12/24 15:59:29;;;;;;;8.40;5.47;;;;;;;;;;5007600;28;20371;-77
2020/12/24 16:02:04;;;;;;;9.73;6.13;;;;;;;;;;4976062;28;20061;-78
2020/12/24 16:04:34;;;;;;;7.65;5.38;;;;;;;;;;5008394;28;20046;-79
2020/12/24 16:07:04;;;;;;;8.35;5.40;;;;;;;;;;4995351;28;20048;-78
2020/12/24 16:09:34;;;;;;;8.98;6.22;;;;;;;;;;5011446;28;20195;-77
2020/12/24 16:12:04;;;;;;;9.55;6.85;;;;;;;;;;4979784;28;20064;-78
2020/12/24 16:14:38;;;;;;;9.23;6.63;;;;;;;;;;4975338;28;20372;-78
2020/12/24 16:17:08;;;;;;;12.07;7.75;;;;;;;;;;4997704;28;20057;-79
2020/12/24 16:19:43;;;;;;;17.13;9.55;;;;;;;;;;5012276;28;20026;-78
2020/12/24 16:22:11;;;;;;;22.10;11.73;;;;;;;;;;4975920;28;20044;-79
2020/12/24 16:24:44;;;;;;;13.70;7.82;;;;;;;;;;4969407;28;20477;-80
2020/12/24 16:27:18;;;;;;;11.25;7.28;;;;;;;;;;5003385;28;20038;-81
2020/12/24 16:29:57;;;;;;;12.02;8.27;;;;;;;;;;4972632;28;20043;-81
2020/12/24 16:32:35;;;;;;;10.65;7.13;;;;;;;;;;4971315;28;20113;-80
2020/12/24 16:35:03;;;;;;;10.65;6.97;;;;;;;;;;4969771;28;20042;-80
2020/12/24 16:37:32;;;;;;;11.88;7.80;;;;;;;;;;4985212;28;20062;-78
2020/12/24 16:40:04;;;;;;;11.65;7.68;;;;;;;;;;4969649;28;20049;-79
2020/12/24 16:42:35;;;;;;;11.55;8.10;;;;;;;;;;4969999;28;20080;-80
2020/12/24 16:45:04;;;;;;;12.20;8.25;;;;;;;;;;4952768;28;20047;-79
2020/12/24 16:47:37;;;;;;;12.23;8.15;;;;;;;;;;4969356;28;20141;-80
2020/12/24 16:50:13;;;;;;;11.63;7.82;;;;;;;;;;5001397;28;20401;-81
2020/12/24 16:52:40;;;;;;;13.23;8.68;;;;;;;;;;4984349;28;20043;-79
2020/12/24 16:55:09;;;;;;;15.73;9.05;;;;;;;;;;4952379;28;20509;-80
2020/12/24 16:57:52;;;;;;;12.82;8.50;;;;;;;;;;5000639;28;20182;-80
2020/12/24 17:00:36;;;;;;;13.32;8.50;;;;;;;;;;4967611;28;20050;-80
2020/12/24 17:03:11;;;;;;;14.15;9.05;;;;;;;;;;4985480;28;20046;-78
2020/12/24 17:05:46;;;;;;;11.75;8.02;;;;;;;;;;5000115;28;20042;-79
2020/12/24 17:08:16;;;;;;;14.30;9.38;;;;;;;;;;4983982;28;20078;-80
2020/12/24 17:10:47;;;;;;;15.82;9.60;;;;;;;;;;4984001;28;20053;-80
2020/12/24 17:13:25;;;;;;;14.80;9.60;;;;;;;;;;4969092;28;20050;-79
2020/12/24 17:15:57;;;;;;;15.35;9.85;;;;;;;;;;4985575;28;20064;-80
2020/12/24 17:18:35;;;;;;;17.60;10.63;;;;;;;;;;4986383;28;20034;-78
2020/12/24 17:21:05;;;;;;;17.60;10.82;;;;;;;;;;5007268;28;20110;-79
2020/12/24 17:23:37;;;;;;;14.57;9.88;;;;;;;;;;5005941;28;20117;-80
2020/12/24 17:26:04;;;;;;;15.25;10.00;;;;;;;;;;4986614;28;20113;-81
2020/12/24 17:28:35;;;;;;;13.65;9.65;;;;;;;;;;4970837;28;20461;-81
2020/12/24 17:31:10;;;;;;;16.95;10.40;;;;;;;;;;4969568;28;20057;-81
2020/12/24 17:33:47;;;;;;;14.95;9.95;;;;;;;;;;4987514;28;20121;-79
2020/12/24 17:36:20;;;;;;;14.13;9.73;;;;;;;;;;5003599;28;20054;-79
2020/12/24 17:38:49;;;;;;;14.52;9.50;;;;;;;;;;4985975;28;20046;-79
2020/12/24 17:41:22;;;;;;;13.02;9.10;;;;;;;;;;5003291;28;20047;-80
2020/12/24 17:43:54;;;;;;;13.88;9.18;;;;;;;;;;4988789;28;20046;-79
2020/12/24 17:46:28;;;;;;;12.68;8.48;;;;;;;;;;4985757;28;20050;-79
2020/12/24 17:49:00;;;;;;;12.45;8.50;;;;;;;;;;4953783;28;20110;-80
2020/12/24 17:51:32;;;;;;;11.65;7.68;;;;;;;;;;4984308;28;20050;-79
2020/12/24 17:54:10;;;;;;;10.55;6.90;;;;;;;;;;4983754;28;20038;-80
2020/12/24 17:56:41;;;;;;;12.55;8.40;;;;;;;;;;4969457;28;20113;-79
2020/12/24 17:59:11;;;;;;;12.65;8.43;;;;;;;;;;4979928;28;20035;-80
2020/12/24 18:01:46;;;;;;;;;;;;;;;;;;4970272;28;20058;-79
2020/12/24 18:04:16;;;;;;;12.20;8.02;;;;;;;;;;4984148;28;19945;-79
2020/12/24 18:06:49;;;;;;;13.13;8.80;;;;;;;;;;4982531;28;20047;-78
2020/12/24 18:09:24;;;;;;;12.77;8.98;;;;;;;;;;4983899;28;20133;-79
2020/12/24 18:12:01;;;;;;;12.77;8.30;;;;;;;;;;4983864;28;20046;-80
2020/12/24 18:14:33;;;;;;;12.32;8.32;;;;;;;;;;4988173;28;20046;-78
2020/12/24 18:17:09;;;;;;;13.63;8.18;;;;;;;;;;4971967;28;20057;-79